createdAt,value
2022-11-20T00:01:11.348Z,11.30
2022-11-20T00:03:38.191Z,11.73
2022-11-20T00:06:07.242Z,11.77
2022-11-20T00:08:34.515Z,12.43
2022-11-20T00:11:18.094Z,10.98
2022-11-20T00:13:45.374Z,10.43
2022-11-20T00:16:13.260Z,10.23
2022-11-20T00:18:39.835Z,10.27
2022-11-20T00:21:11.297Z,11.15
2022-11-20T00:23:37.807Z,12.00
2022-11-20T00:26:06.394Z,10.95
2022-11-20T00:28:33.083Z,11.68
2022-11-20T00:31:08.632Z,10.57
2022-11-20T00:33:35.469Z,8.90
2022-11-20T00:36:04.729Z,9.50
2022-11-20T00:38:32.296Z,9.57
2022-11-20T00:41:01.052Z,8.48
2022-11-20T00:43:28.526Z,8.73
2022-11-20T00:46:10.126Z,6.60
2022-11-20T00:48:36.986Z,7.35
2022-11-20T00:51:03.471Z,6.95
2022-11-20T00:53:30.121Z,6.78
2022-11-20T00:56:01.762Z,6.73
2022-11-20T00:58:33.352Z,6.10
2022-11-20T01:01:03.169Z,6.43
2022-11-20T01:03:39.016Z,6.60
2022-11-20T01:06:08.860Z,6.40
2022-11-20T01:08:37.274Z,6.00
2022-11-20T01:11:07.016Z,5.80
2022-11-20T01:13:40.247Z,5.97
2022-11-20T01:16:11.689Z,6.10
2022-11-20T01:18:40.096Z,5.82
2022-11-20T01:21:09.551Z,5.53
2022-11-20T01:23:39.073Z,5.60
2022-11-20T01:26:08.138Z,6.40
2022-11-20T01:28:35.665Z,6.63
2022-11-20T01:31:10.987Z,7.40
2022-11-20T01:33:37.451Z,8.17
2022-11-20T01:36:06.329Z,7.95
2022-11-20T01:38:32.844Z,6.75
2022-11-20T01:40:59.428Z,6.07
2022-11-20T01:43:26.921Z,7.03
2022-11-20T01:46:14.412Z,6.27
2022-11-20T01:49:02.436Z,6.35
2022-11-20T01:52:07.418Z,5.60
2022-11-20T01:54:43.375Z,5.93
2022-11-20T01:57:12.966Z,5.75
2022-11-20T01:59:45.972Z,5.80
2022-11-20T02:02:12.390Z,5.70
2022-11-20T02:04:38.885Z,5.45
2022-11-20T02:07:06.505Z,6.53
2022-11-20T02:09:33.091Z,6.10
2022-11-20T02:12:00.334Z,5.83
2022-11-20T02:14:27.459Z,5.28
2022-11-20T02:16:55.857Z,6.47
2022-11-20T02:19:32.695Z,5.75
2022-11-20T02:22:20.298Z,5.63
2022-11-20T02:24:49.768Z,5.60
2022-11-20T02:27:17.987Z,5.88
2022-11-20T02:30:05.456Z,5.38
2022-11-20T02:32:34.796Z,6.13
2022-11-20T02:35:10.293Z,5.32
2022-11-20T02:37:40.050Z,5.63
2022-11-20T02:40:07.229Z,4.22
2022-11-20T02:42:33.688Z,3.38
2022-11-20T02:45:00.170Z,2.78
2022-11-20T02:47:26.666Z,3.67
2022-11-20T02:49:53.121Z,2.90
2022-11-20T02:52:19.596Z,2.92
2022-11-20T02:54:46.076Z,3.17
2022-11-20T02:57:12.523Z,2.55
2022-11-20T02:59:38.981Z,3.15
2022-11-20T03:02:05.960Z,3.40
2022-11-20T03:04:32.464Z,3.20
2022-11-20T03:06:59.000Z,3.55
2022-11-20T03:09:25.631Z,3.28
2022-11-20T03:11:52.207Z,2.90
2022-11-20T03:14:18.816Z,4.17
2022-11-20T03:16:45.275Z,3.78
2022-11-20T03:19:12.903Z,4.05
2022-11-20T03:21:39.349Z,4.03
2022-11-20T03:24:06.143Z,4.00
2022-11-20T03:26:32.799Z,4.57
2022-11-20T03:29:01.361Z,3.75
2022-11-20T03:31:30.857Z,3.80
2022-11-20T03:33:58.784Z,3.47
2022-11-20T03:36:27.885Z,3.60
2022-11-20T03:38:55.750Z,3.70
2022-11-20T03:41:24.787Z,3.90
2022-11-20T03:43:52.366Z,3.42
2022-11-20T03:46:19.028Z,4.07
2022-11-20T03:48:51.152Z,3.58
2022-11-20T03:51:29.511Z,3.60
2022-11-20T03:53:58.633Z,3.67
2022-11-20T03:56:27.905Z,4.13
2022-11-20T03:58:54.843Z,3.65
2022-11-20T04:01:23.936Z,4.57
2022-11-20T04:03:53.295Z,4.43
2022-11-20T04:06:22.796Z,5.22
2022-11-20T04:08:53.629Z,5.35
2022-11-20T04:11:30.076Z,6.30
2022-11-20T04:13:59.528Z,4.90
2022-11-20T04:16:27.286Z,5.30
2022-11-20T04:18:55.806Z,5.35
2022-11-20T04:21:23.042Z,5.10
2022-11-20T04:23:50.562Z,5.40
2022-11-20T04:26:17.861Z,5.32
2022-11-20T04:28:44.373Z,5.93
2022-11-20T04:31:15.719Z,5.30
2022-11-20T04:33:42.510Z,4.72
2022-11-20T04:36:14.550Z,5.13
2022-11-20T04:38:41.221Z,3.88
2022-11-20T04:41:12.047Z,3.43
2022-11-20T04:43:38.502Z,3.20
2022-11-20T04:46:05.040Z,3.90
2022-11-20T04:48:31.585Z,4.18
2022-11-20T04:50:58.425Z,4.10
2022-11-20T04:53:25.067Z,5.33
2022-11-20T04:55:51.558Z,4.63
2022-11-20T04:58:18.074Z,4.40
2022-11-20T05:00:44.595Z,5.20
2022-11-20T05:03:11.066Z,4.97
2022-11-20T05:05:37.546Z,5.53
2022-11-20T05:08:04.234Z,4.80
2022-11-20T05:10:30.723Z,4.50
2022-11-20T05:12:58.078Z,4.35
2022-11-20T05:15:24.857Z,5.20
2022-11-20T05:17:52.791Z,5.37
2022-11-20T05:20:20.562Z,4.95
2022-11-20T05:22:47.007Z,5.53
2022-11-20T05:25:13.530Z,5.60
2022-11-20T05:27:40.025Z,5.53
2022-11-20T05:30:07.682Z,5.00
2022-11-20T05:32:34.286Z,4.75
2022-11-20T05:35:00.855Z,4.57
2022-11-20T05:37:27.366Z,4.72
2022-11-20T05:39:53.823Z,4.72
2022-11-20T05:42:32.307Z,5.07
2022-11-20T05:45:02.432Z,5.75
2022-11-20T05:47:33.902Z,5.30
2022-11-20T05:50:00.679Z,6.50
2022-11-20T05:52:31.049Z,6.25
2022-11-20T05:54:58.165Z,5.70
2022-11-20T05:57:24.712Z,5.80
2022-11-20T05:59:51.177Z,6.22
2022-11-20T06:02:17.835Z,5.82
2022-11-20T06:04:44.335Z,4.35
2022-11-20T06:07:11.284Z,4.63
2022-11-20T06:09:38.120Z,4.40
2022-11-20T06:12:04.930Z,4.45
2022-11-20T06:14:31.415Z,4.00
2022-11-20T06:16:58.009Z,3.88
2022-11-20T06:19:24.473Z,4.50
2022-11-20T06:21:51.082Z,4.95
2022-11-20T06:24:17.956Z,5.43
2022-11-20T06:26:45.239Z,5.68
2022-11-20T06:29:11.732Z,6.82
2022-11-20T06:31:38.890Z,6.30
2022-11-20T06:34:07.152Z,7.15
2022-11-20T06:36:34.173Z,5.93
2022-11-20T06:39:01.525Z,5.47
2022-11-20T06:41:28.941Z,5.95
2022-11-20T06:43:55.561Z,4.60
2022-11-20T06:46:22.539Z,3.72
2022-11-20T06:48:49.981Z,2.50
2022-11-20T06:51:17.525Z,2.75
2022-11-20T06:53:44.162Z,2.45
2022-11-20T06:56:11.034Z,1.90
2022-11-20T06:58:37.959Z,2.22
2022-11-20T07:01:11.090Z,1.90
2022-11-20T07:03:38.399Z,2.33
2022-11-20T07:06:05.728Z,1.88
2022-11-20T07:08:32.972Z,1.60
2022-11-20T07:11:05.365Z,1.75
2022-11-20T07:13:32.137Z,1.45
2022-11-20T07:16:04.154Z,2.03
2022-11-20T07:18:30.971Z,1.52
2022-11-20T07:21:00.457Z,1.03
2022-11-20T07:23:26.921Z,1.42
2022-11-20T07:25:53.385Z,1.23
2022-11-20T07:28:19.844Z,1.17
2022-11-20T07:30:54.008Z,0.90
2022-11-20T07:33:21.069Z,1.00
2022-11-20T07:35:47.728Z,1.00
2022-11-20T07:38:14.223Z,1.25
2022-11-20T07:40:40.796Z,1.30
2022-11-20T07:43:07.419Z,1.85
2022-11-20T07:45:33.979Z,1.83
2022-11-20T07:48:00.449Z,1.75
2022-11-20T07:50:26.949Z,2.58
2022-11-20T07:52:53.629Z,2.45
2022-11-20T07:55:20.063Z,2.40
2022-11-20T07:57:46.538Z,3.37
2022-11-20T08:00:13.796Z,2.72
2022-11-20T08:02:41.521Z,2.63
2022-11-20T08:05:09.307Z,2.75
2022-11-20T08:07:40.642Z,3.00
2022-11-20T08:10:09.263Z,2.90
2022-11-20T08:12:54.542Z,2.90
2022-11-20T08:15:21.157Z,2.60
2022-11-20T08:18:08.349Z,1.98
2022-11-20T08:20:35.025Z,2.13
2022-11-20T08:23:06.789Z,1.90
2022-11-20T08:25:37.635Z,2.00
2022-11-20T08:28:19.906Z,1.83
2022-11-20T08:30:47.233Z,2.33
2022-11-20T08:33:13.875Z,2.13
2022-11-20T08:35:42.065Z,2.50
2022-11-20T08:38:10.030Z,2.50
2022-11-20T08:40:36.631Z,2.80
2022-11-20T08:43:03.096Z,3.08
2022-11-20T08:45:33.695Z,2.70
2022-11-20T08:48:02.456Z,3.20
2022-11-20T08:50:28.990Z,3.20
2022-11-20T08:52:55.936Z,2.60
2022-11-20T08:55:22.411Z,2.92
2022-11-20T08:57:51.021Z,2.50
2022-11-20T09:00:18.195Z,2.70
2022-11-20T09:02:44.670Z,2.78
2022-11-20T09:05:11.495Z,2.30
2022-11-20T09:07:38.097Z,2.38
2022-11-20T09:10:23.003Z,2.00
2022-11-20T09:12:52.572Z,2.20
2022-11-20T09:15:19.797Z,1.65
2022-11-20T09:17:53.244Z,1.65
2022-11-20T09:20:19.968Z,1.60
2022-11-20T09:22:46.428Z,1.25
2022-11-20T09:25:12.977Z,1.63
2022-11-20T09:27:39.691Z,1.25
2022-11-20T09:30:06.741Z,1.40
2022-11-20T09:32:33.187Z,1.50
2022-11-20T09:37:27.352Z,1.20
2022-11-20T09:39:54.291Z,1.98
2022-11-20T09:42:36.158Z,0.90
2022-11-20T09:45:16.937Z,0.98
2022-11-20T09:47:52.548Z,1.65
2022-11-20T09:50:43.569Z,0.90
2022-11-20T09:53:41.872Z,1.05
2022-11-20T09:56:11.843Z,1.38
2022-11-20T09:58:43.770Z,1.17
2022-11-20T10:01:15.179Z,1.42
2022-11-20T10:03:56.790Z,2.40
2022-11-20T10:06:38.208Z,1.38
2022-11-20T10:09:16.044Z,1.30
2022-11-20T10:11:48.567Z,1.33
2022-11-20T10:14:27.406Z,1.35
2022-11-20T10:17:07.250Z,1.50
2022-11-20T10:20:23.252Z,1.40
2022-11-20T10:23:25.834Z,2.08
2022-11-20T10:26:18.671Z,1.50
2022-11-20T10:29:09.970Z,1.15
2022-11-20T10:31:42.379Z,0.97
2022-11-20T10:34:29.187Z,1.20
2022-11-20T10:37:19.430Z,0.85
2022-11-20T10:39:54.596Z,1.48
2022-11-20T10:42:43.467Z,1.40
2022-11-20T10:45:25.124Z,1.47
2022-11-20T10:47:59.955Z,1.13
2022-11-20T10:50:27.741Z,1.20
2022-11-20T10:53:16.396Z,1.30
2022-11-20T10:56:01.293Z,1.20
2022-11-20T10:58:33.694Z,1.23
2022-11-20T11:01:15.051Z,1.42
2022-11-20T11:03:44.415Z,1.45
2022-11-20T11:06:38.759Z,1.23
2022-11-20T11:09:12.913Z,3.72
2022-11-20T11:11:39.452Z,1.30
2022-11-20T11:14:07.978Z,1.85
2022-11-20T11:16:34.640Z,1.35
2022-11-20T11:19:12.576Z,1.67
2022-11-20T11:21:44.438Z,1.85
2022-11-20T11:27:17.313Z,1.02
2022-11-20T11:29:44.485Z,2.70
2022-11-20T11:32:21.587Z,2.75
2022-11-20T11:35:20.646Z,1.67
2022-11-20T11:37:48.907Z,2.70
2022-11-20T11:40:23.777Z,1.70
2022-11-20T11:42:58.898Z,1.48
2022-11-20T11:45:25.743Z,1.45
2022-11-20T11:47:55.040Z,1.88
2022-11-20T11:50:27.256Z,1.37
2022-11-20T11:53:17.634Z,1.88
2022-11-20T11:56:04.919Z,1.45
2022-11-20T11:58:52.572Z,1.88
2022-11-20T12:01:35.083Z,2.13
2022-11-20T12:04:14.330Z,2.47
2022-11-20T12:06:45.411Z,2.05
2022-11-20T12:09:13.033Z,1.50
2022-11-20T12:11:50.721Z,1.80
2022-11-20T12:14:27.945Z,1.83
2022-11-20T12:16:56.633Z,1.50
2022-11-20T12:19:23.394Z,1.63
2022-11-20T12:22:15.489Z,1.52
2022-11-20T12:24:51.387Z,2.00
2022-11-20T12:27:59.249Z,1.92
2022-11-20T12:30:26.020Z,1.60
2022-11-20T12:32:52.422Z,1.75
2022-11-20T12:35:21.865Z,2.45
2022-11-20T12:38:06.633Z,1.88
2022-11-20T12:40:36.091Z,1.38
2022-11-20T12:43:33.425Z,1.93
2022-11-20T12:46:02.517Z,1.48
2022-11-20T12:48:46.408Z,1.85
2022-11-20T12:51:27.056Z,2.00
2022-11-20T12:54:21.037Z,1.83
2022-11-20T12:57:16.710Z,1.20
2022-11-20T12:59:58.087Z,1.33
2022-11-20T13:02:45.515Z,1.45
2022-11-20T13:05:18.171Z,1.63
2022-11-20T13:07:45.970Z,1.63
2022-11-20T13:10:34.845Z,1.53
2022-11-20T13:13:14.603Z,1.48
2022-11-20T13:15:55.357Z,1.70
2022-11-20T13:18:22.397Z,1.33
2022-11-20T13:20:50.532Z,1.85
2022-11-20T13:23:28.389Z,1.33
2022-11-20T13:26:07.015Z,1.50
2022-11-20T13:28:34.084Z,1.45
2022-11-20T13:31:00.751Z,1.50
2022-11-20T13:33:34.586Z,2.30
2022-11-20T13:36:21.168Z,1.40
2022-11-20T13:38:50.422Z,1.63
2022-11-20T13:41:34.232Z,1.30
2022-11-20T13:44:35.542Z,1.58
2022-11-20T13:47:02.316Z,1.95
2022-11-20T13:49:38.892Z,1.60
2022-11-20T13:52:38.894Z,1.80
2022-11-20T13:55:05.317Z,1.50
2022-11-20T13:57:52.855Z,1.45
2022-11-20T14:00:21.695Z,1.25
2022-11-20T14:03:19.117Z,2.60
2022-11-20T14:06:04.416Z,1.58
2022-11-20T14:08:40.592Z,1.65
2022-11-20T14:11:36.180Z,1.58
2022-11-20T14:14:16.686Z,2.00
2022-11-20T14:16:45.249Z,4.27
2022-11-20T14:19:20.779Z,3.72
2022-11-20T14:21:53.563Z,12.35
2022-11-20T14:24:22.351Z,4.13
2022-11-20T14:26:51.286Z,9.52
2022-11-20T14:29:19.284Z,9.40
2022-11-20T14:31:52.645Z,9.85
2022-11-20T14:34:25.840Z,14.07
2022-11-20T14:36:59.577Z,7.03
2022-11-20T14:39:51.079Z,5.47
2022-11-20T14:42:25.529Z,4.23
2022-11-20T14:44:56.350Z,5.63
2022-11-20T14:47:26.870Z,4.78
2022-11-20T14:49:54.679Z,4.40
2022-11-20T14:52:26.449Z,5.15
2022-11-20T14:55:00.522Z,8.90
2022-11-20T14:57:30.489Z,2.40
2022-11-20T15:00:19.261Z,1.80
2022-11-20T15:02:48.474Z,2.83
2022-11-20T15:05:16.520Z,1.92
2022-11-20T15:07:48.873Z,1.67
2022-11-20T15:10:26.750Z,1.42
2022-11-20T15:12:56.366Z,1.63
2022-11-20T15:15:29.551Z,1.40
2022-11-20T15:17:56.539Z,3.65
2022-11-20T15:20:34.444Z,3.00
2022-11-20T15:23:00.933Z,2.67
2022-11-20T15:25:27.521Z,2.25
2022-11-20T15:27:57.875Z,2.55
2022-11-20T15:30:25.458Z,2.55
2022-11-20T15:32:52.132Z,1.30
2022-11-20T15:35:18.721Z,2.40
2022-11-20T15:37:45.286Z,1.85
2022-11-20T15:40:12.153Z,1.30
2022-11-20T15:42:38.681Z,1.20
2022-11-20T15:45:05.616Z,1.20
2022-11-20T15:47:35.311Z,1.40
2022-11-20T15:50:02.141Z,1.25
2022-11-20T15:52:33.216Z,2.13
2022-11-20T15:55:11.447Z,1.05
2022-11-20T15:57:37.912Z,1.70
2022-11-20T16:00:04.847Z,1.65
2022-11-20T16:02:31.311Z,2.30
2022-11-20T16:04:57.756Z,1.95
2022-11-20T16:07:24.579Z,1.83
2022-11-20T16:09:51.056Z,1.77
2022-11-20T16:12:37.492Z,1.58
2022-11-20T16:15:22.761Z,1.65
2022-11-20T16:17:49.217Z,2.15
2022-11-20T16:20:16.558Z,1.95
2022-11-20T16:22:43.041Z,1.77
2022-11-20T16:25:09.486Z,2.08
2022-11-20T16:27:35.915Z,1.88
2022-11-20T16:30:02.400Z,2.05
2022-11-20T16:32:28.877Z,1.92
2022-11-20T16:34:55.436Z,1.50
2022-11-20T16:37:21.898Z,2.58
2022-11-20T16:39:48.385Z,3.05
2022-11-20T16:42:14.830Z,1.50
2022-11-20T16:44:41.375Z,1.15
2022-11-20T16:47:07.937Z,2.03
2022-11-20T16:49:34.409Z,1.60
2022-11-20T16:52:01.422Z,1.45
2022-11-20T16:54:28.157Z,1.10
2022-11-20T16:56:54.762Z,0.85
2022-11-20T16:59:21.303Z,1.20
2022-11-20T17:01:47.848Z,0.80
2022-11-20T17:04:14.711Z,1.15
2022-11-20T17:06:44.202Z,1.08
2022-11-20T17:09:11.344Z,1.05
2022-11-20T17:11:37.855Z,1.30
2022-11-20T17:14:04.545Z,1.05
2022-11-20T17:16:31.562Z,0.82
2022-11-20T17:19:02.914Z,1.30
2022-11-20T17:21:35.882Z,0.93
2022-11-20T17:24:11.590Z,0.60
2022-11-20T17:26:40.671Z,1.00
2022-11-20T17:29:12.382Z,1.60
2022-11-20T17:31:39.676Z,1.42
2022-11-20T17:34:08.148Z,1.17
2022-11-20T17:36:34.926Z,1.20
2022-11-20T17:39:01.355Z,1.05
2022-11-20T17:41:29.543Z,0.75
2022-11-20T17:43:58.299Z,0.80
2022-11-20T17:46:27.134Z,0.93
2022-11-20T17:48:55.129Z,0.83
2022-11-20T17:51:29.843Z,0.90
2022-11-20T17:54:01.711Z,1.35
2022-11-20T17:56:51.880Z,1.00
2022-11-20T17:59:18.954Z,0.68
2022-11-20T18:01:45.868Z,0.90
2022-11-20T18:04:13.019Z,1.90
2022-11-20T18:06:40.055Z,1.00
2022-11-20T18:09:07.162Z,0.60
2022-11-20T18:11:36.212Z,1.17
2022-11-20T18:14:25.130Z,1.40
2022-11-20T18:16:54.944Z,1.98
2022-11-20T18:19:32.190Z,1.88
2022-11-20T18:22:01.229Z,1.67
2022-11-20T18:24:27.929Z,0.82
2022-11-20T18:26:54.435Z,1.10
2022-11-20T18:29:20.996Z,1.05
2022-11-20T18:31:48.271Z,1.75
2022-11-20T18:34:14.918Z,2.30
2022-11-20T18:36:48.081Z,2.75
2022-11-20T18:39:15.699Z,2.87
2022-11-20T18:42:01.369Z,4.28
2022-11-20T18:44:48.517Z,4.63
2022-11-20T18:47:17.745Z,5.40
2022-11-20T18:49:46.303Z,5.47
2022-11-20T18:52:13.291Z,3.80
2022-11-20T18:54:39.748Z,2.63
2022-11-20T18:57:06.278Z,2.00
2022-11-20T18:59:32.957Z,1.48
2022-11-20T19:01:59.473Z,1.00
2022-11-20T19:04:26.595Z,1.10
2022-11-20T19:06:56.222Z,1.25
2022-11-20T19:09:24.121Z,1.13
2022-11-20T19:11:52.080Z,1.15
2022-11-20T19:14:18.575Z,0.80
2022-11-20T19:16:45.151Z,1.57
2022-11-20T19:19:11.967Z,1.20
2022-11-20T19:21:38.446Z,0.98
2022-11-20T19:24:05.372Z,1.35
2022-11-20T19:26:34.402Z,1.30
2022-11-20T19:29:01.141Z,1.13
2022-11-20T19:31:27.634Z,1.02
2022-11-20T19:33:59.270Z,1.33
2022-11-20T19:36:28.666Z,1.15
2022-11-20T19:38:55.448Z,1.42
2022-11-20T19:41:28.910Z,1.37
2022-11-20T19:44:00.068Z,1.42
2022-11-20T19:46:27.892Z,1.65
2022-11-20T19:48:55.061Z,1.70
2022-11-20T19:51:27.398Z,1.70
2022-11-20T19:53:56.008Z,2.77
2022-11-20T19:56:23.120Z,2.65
2022-11-20T19:58:49.658Z,2.10
2022-11-20T20:01:19.110Z,1.73
2022-11-20T20:03:47.108Z,2.17
2022-11-20T20:06:19.491Z,2.87
2022-11-20T20:08:46.355Z,2.58
2022-11-20T20:11:20.363Z,3.10
2022-11-20T20:13:47.220Z,2.13
2022-11-20T20:16:16.181Z,2.45
2022-11-20T20:18:42.895Z,1.97
2022-11-20T20:21:11.889Z,2.50
2022-11-20T20:23:38.700Z,2.38
2022-11-20T20:26:07.250Z,2.47
2022-11-20T20:28:35.228Z,4.53
2022-11-20T20:31:13.054Z,4.27
2022-11-20T20:33:40.765Z,3.55
2022-11-20T20:36:09.462Z,3.17
2022-11-20T20:38:36.287Z,3.25
2022-11-20T20:41:02.980Z,2.85
2022-11-20T20:43:30.002Z,2.63
2022-11-20T20:45:56.467Z,2.08
2022-11-20T20:48:24.873Z,2.42
2022-11-20T20:51:03.832Z,2.30
2022-11-20T20:53:30.983Z,2.65
2022-11-20T20:56:01.785Z,2.67
2022-11-20T20:58:30.172Z,2.03
2022-11-20T21:01:08.201Z,2.45
2022-11-20T21:03:35.738Z,2.20
2022-11-20T21:06:02.916Z,2.47
2022-11-20T21:08:29.817Z,2.17
2022-11-20T21:11:07.877Z,2.15
2022-11-20T21:13:35.626Z,2.10
2022-11-20T21:16:03.093Z,2.17
2022-11-20T21:18:29.781Z,2.10
2022-11-20T21:21:14.675Z,2.20
2022-11-20T21:23:44.071Z,2.03
2022-11-20T21:26:11.155Z,2.10
2022-11-20T21:28:38.217Z,1.60
2022-11-20T21:31:13.246Z,1.83
2022-11-20T21:33:44.006Z,1.90
2022-11-20T21:36:12.752Z,1.90
2022-11-20T21:38:39.568Z,2.15
2022-11-20T21:41:08.787Z,2.00
2022-11-20T21:43:35.691Z,2.08
2022-11-20T21:46:07.726Z,2.40
2022-11-20T21:48:36.384Z,3.10
2022-11-20T21:51:06.949Z,2.92
2022-11-20T21:53:33.964Z,3.00
2022-11-20T21:56:01.298Z,2.33
2022-11-20T21:58:28.190Z,2.27
2022-11-20T22:00:54.877Z,2.35
2022-11-20T22:03:22.000Z,2.20
2022-11-20T22:05:56.415Z,2.05
2022-11-20T22:08:26.774Z,2.08
2022-11-20T22:10:57.599Z,2.13
2022-11-20T22:13:43.678Z,3.15
2022-11-20T22:16:10.868Z,2.60
2022-11-20T22:18:45.042Z,2.63
2022-11-20T22:21:12.545Z,2.75
2022-11-20T22:23:39.196Z,3.07
2022-11-20T22:26:07.601Z,3.13
2022-11-20T22:28:35.227Z,4.03
2022-11-20T22:31:03.192Z,3.03
2022-11-20T22:33:31.832Z,2.78
2022-11-20T22:36:03.097Z,2.17
2022-11-20T22:38:30.081Z,1.83
2022-11-20T22:41:09.302Z,2.80
2022-11-20T22:43:36.291Z,5.65
2022-11-20T22:46:10.954Z,4.35
2022-11-20T22:48:40.038Z,4.00
2022-11-20T22:51:14.627Z,3.40
2022-11-20T22:53:42.594Z,3.00
2022-11-20T22:56:14.384Z,2.42
2022-11-20T22:58:43.069Z,1.90
2022-11-20T23:01:13.812Z,2.37
2022-11-20T23:03:42.236Z,1.85
2022-11-20T23:06:12.148Z,1.80
2022-11-20T23:08:40.182Z,2.05
2022-11-20T23:11:10.000Z,2.00
2022-11-20T23:13:36.938Z,2.10
2022-11-20T23:16:07.109Z,2.00
2022-11-20T23:18:34.339Z,1.98
2022-11-20T23:21:09.641Z,2.20
2022-11-20T23:23:36.333Z,2.20
2022-11-20T23:26:05.297Z,1.63
2022-11-20T23:28:32.382Z,1.48
2022-11-20T23:30:59.412Z,2.58
2022-11-20T23:33:26.164Z,3.03
2022-11-20T23:35:53.279Z,2.03
2022-11-20T23:38:19.961Z,2.10
2022-11-20T23:40:48.174Z,3.17
2022-11-20T23:43:15.828Z,2.97
2022-11-20T23:45:56.737Z,2.25
2022-11-20T23:48:34.631Z,2.70
2022-11-20T23:51:01.807Z,1.90
2022-11-20T23:53:28.848Z,1.88
2022-11-20T23:55:58.015Z,2.47
2022-11-20T23:58:31.402Z,2.35
